Euskara    
Meteorología y climatología de Navarra
Datos de la estación - Meteo Navarra

Estación de Erremendia (Salazar) GN

Altitud 1047 m.


Datos desde el 22/11/2020 hasta el 23/11/2020 en horario solar
Los datos son PROVISIONALES

Anterior Página 1 de 1 Siguiente Descargar: Formato para Excel 2000 o superior   Formato csv   Formato para OpenOffice Calc
Fecha Temperatura Humedad relativa Radiación global Insolación Precipitación Vel. viento 10 m Vel. viento 10 m Dir. viento 10 m
°C % W/m² s l/m² m/s km/h °
22/11/2020 0:00 -5.1 91 0.0 0 0.0 0.1 0.2 84
22/11/2020 0:10 -5.5 91 0.0 0 0.0 0.0 0.1 84
22/11/2020 0:20 -5.6 91 0.0 0 0.0 0.2 0.8 83
22/11/2020 0:30 -5.2 92 0.0 0 0.0 0.6 2.0 64
22/11/2020 0:40 -5.3 91 0.0 0 0.0 0.1 0.4 84
22/11/2020 0:50 -5.4 91 0.0 0 0.0 0.1 0.5 84
22/11/2020 1:00 -5.2 92 0.0 0 0.0 0.5 1.8 83
22/11/2020 1:10 -5.0 92 0.0 0 0.0 0.2 0.5 68
22/11/2020 1:20 -5.2 91 0.0 0 0.0 0.2 0.9 173
22/11/2020 1:30 -5.3 91 0.0 0 0.0 0.2 0.5 85
22/11/2020 1:40 -5.4 91 0.0 0 0.0 1.1 3.9 85
22/11/2020 1:50 -4.9 91 0.0 0 0.0 1.5 5.5 72
22/11/2020 2:00 -4.9 89 0.0 0 0.0 0.5 1.7 84
22/11/2020 2:10 -5.1 89 0.0 0 0.0 0.1 0.5 84
22/11/2020 2:20 -5.4 90 0.0 0 0.0 0.3 0.9 76
22/11/2020 2:30 -5.6 90 0.0 0 0.0 0.1 0.2 83
22/11/2020 2:40 -5.8 90 0.0 0 0.0 0.2 0.6 57
22/11/2020 2:50 -5.9 91 0.0 0 0.0 0.1 0.3 71
22/11/2020 3:00 -5.9 91 0.0 0 0.0 0.0 0.1 56
22/11/2020 3:10 -6.1 90 0.0 0 0.0 0.2 0.8 79
22/11/2020 3:20 -6.0 91 0.0 0 0.0 0.9 3.1 70
22/11/2020 3:30 -5.7 91 0.0 0 0.0 0.5 1.6 83
22/11/2020 3:40 -5.5 91 0.0 0 0.0 0.2 0.8 80
22/11/2020 3:50 -5.5 91 0.0 0 0.0 0.4 1.5 80
22/11/2020 4:00 -5.8 90 0.0 0 0.0 0.1 0.5 283
22/11/2020 4:10 -5.9 90 0.0 0 0.0 0.0 0.1 261
22/11/2020 4:20 -6.0 90 0.0 0 0.0 1.0 3.6 61
22/11/2020 4:30 -5.7 91 0.0 0 0.0 1.5 5.3 73
22/11/2020 4:40 -5.1 89 0.0 0 0.0 0.3 0.9 84
22/11/2020 4:50 -5.3 89 0.0 0 0.0 0.7 2.5 78
22/11/2020 5:00 -5.6 89 0.0 0 0.0 0.0 0.1 74
22/11/2020 5:10 -5.7 89 0.0 0 0.0 0.2 0.8 84
22/11/2020 5:20 -5.9 90 0.0 0 0.0 1.4 4.9 63
22/11/2020 5:30 -5.9 90 0.0 0 0.0 1.0 3.7 69
22/11/2020 5:40 -5.6 89 0.0 0 0.0 0.4 1.3 84
22/11/2020 5:50 -5.9 89 0.0 0 0.0 0.8 2.8 81
22/11/2020 6:00 -6.1 89 0.0 0 0.0 0.9 3.1 81
22/11/2020 6:10 -6.1 90 0.0 0 0.0 0.6 2.2 82
22/11/2020 6:20 -6.1 90 0.0 0 0.0 0.6 2.2 82
22/11/2020 6:30 -6.1 89 0.0 0 0.0 1.2 4.1 82
22/11/2020 6:40 -6.0 89 0.0 0 0.0 0.2 0.6 80
22/11/2020 6:50 -6.0 90 0.0 0 0.0 1.0 3.6 72
22/11/2020 7:00 -6.1 90 0.0 0 0.0 0.0 0.1 84
22/11/2020 7:10 -6.0 90 0.0 0 0.0 0.4 1.3 72
22/11/2020 7:20 -6.3 90 0.0 0 0.0 0.6 2.2 80
22/11/2020 7:30 -6.4 90 0.0 0 0.0 0.6 2.2 82
22/11/2020 7:40 -5.9 91 5.1 0 0.0 0.2 0.6 57
22/11/2020 7:50 -5.8 91 59.9 458 0.0 0.6 2.2 79
22/11/2020 8:00 -4.4 91 93.4 600 0.0 1.3 4.5 68
22/11/2020 8:10 -2.8 84 119.1 600 0.0 1.1 3.9 82
22/11/2020 8:20 -0.4 81 145.4 600 0.0 0.3 1.0 84
22/11/2020 8:30 1.8 78 170.0 600 0.0 0.4 1.6 78
22/11/2020 8:40 3.1 72 192.7 600 0.0 0.0 0.1 84
22/11/2020 8:50 4.0 70 213.6 600 0.0 0.1 0.3 84
22/11/2020 9:00 3.9 67 236.2 600 0.0 0.1 0.2 84
22/11/2020 9:10 6.0 63 260.4 600 0.0 0.6 2.3 67
22/11/2020 9:20 6.3 65 284.1 600 0.0 0.9 3.2 79
22/11/2020 9:30 6.9 59 306.5 600 0.0 0.1 0.5 85
22/11/2020 9:40 8.1 51 329.7 600 0.0 0.0 0.1 85
22/11/2020 9:50 9.1 47 347.3 600 0.0 0.0 0.1 85
22/11/2020 10:00 10.6 42 366.3 600 0.0 0.1 0.4 85
22/11/2020 10:10 11.4 41 384.4 600 0.0 0.3 0.9 85
22/11/2020 10:20 11.6 38 399.9 600 0.0 0.7 2.4 238
22/11/2020 10:30 11.4 37 414.7 600 0.0 0.8 3.0 253
22/11/2020 10:40 11.0 34 427.0 600 0.0 1.0 3.6 294
22/11/2020 10:50 11.2 34 438.0 600 0.0 0.8 3.0 277
22/11/2020 11:00 12.4 32 446.0 600 0.0 0.6 2.0 219
22/11/2020 11:10 12.7 33 451.0 600 0.0 0.8 2.8 165
22/11/2020 11:20 13.1 32 455.8 600 0.0 0.5 1.7 264
22/11/2020 11:30 12.6 33 458.7 600 0.0 0.8 3.0 292
22/11/2020 11:40 12.6 34 460.5 600 0.0 1.3 4.5 255
22/11/2020 11:50 12.5 34 463.8 600 0.0 1.4 4.9 258
22/11/2020 12:00 12.7 34 465.5 600 0.0 1.7 6.1 271
22/11/2020 12:10 12.7 35 465.3 600 0.0 1.5 5.5 291
22/11/2020 12:20 12.4 33 463.2 600 0.0 1.8 6.5 290
22/11/2020 12:30 12.5 33 461.6 600 0.0 1.5 5.4 300
22/11/2020 12:40 12.5 32 455.7 600 0.0 1.5 5.4 310
22/11/2020 12:50 12.3 33 448.0 600 0.0 1.4 5.0 318
22/11/2020 13:00 12.5 33 438.1 600 0.0 1.4 5.2 304
22/11/2020 13:10 12.5 33 427.7 600 0.0 1.3 4.6 309
22/11/2020 13:20 13.1 33 415.3 600 0.0 0.9 3.4 287
22/11/2020 13:30 12.6 31 399.4 600 0.0 2.0 7.2 317
22/11/2020 13:40 12.6 32 385.1 600 0.0 1.9 6.9 308
22/11/2020 13:50 12.8 33 368.1 600 0.0 1.5 5.4 307
22/11/2020 14:00 13.0 34 351.2 600 0.0 1.6 5.7 309
22/11/2020 14:10 12.7 35 326.2 600 0.0 1.8 6.6 297
22/11/2020 14:20 12.7 35 298.8 600 0.0 1.9 6.7 284
22/11/2020 14:30 12.5 36 279.5 600 0.0 1.9 6.7 312
22/11/2020 14:40 12.5 36 261.3 600 0.0 1.8 6.4 307
22/11/2020 14:50 12.2 38 234.0 600 0.0 2.2 7.9 312
22/11/2020 15:00 12.1 39 208.4 600 0.0 1.7 6.2 313
22/11/2020 15:10 12.1 39 170.1 600 0.0 1.7 6.1 306
22/11/2020 15:20 11.7 40 129.9 600 0.0 1.1 3.9 288
22/11/2020 15:30 11.8 40 115.4 600 0.0 1.3 4.8 273
22/11/2020 15:40 11.8 40 116.3 600 0.0 0.9 3.4 286
22/11/2020 15:50 12.0 39 85.5 600 0.0 0.7 2.6 274
22/11/2020 16:00 12.2 39 63.5 600 0.0 0.9 3.4 264
22/11/2020 16:10 10.5 44 27.7 292 0.0 1.1 3.8 242
22/11/2020 16:20 7.6 55 0.0 0 0.0 0.7 2.3 201
22/11/2020 16:30 5.7 62 0.0 0 0.0 0.1 0.3 205
22/11/2020 16:40 4.4 67 0.0 0 0.0 0.3 1.0 164
22/11/2020 16:50 3.3 69 0.0 0 0.0 0.0 0.1 155
22/11/2020 17:00 2.1 72 0.0 0 0.0 0.4 1.5 116
22/11/2020 17:10 1.4 76 0.0 0 0.0 0.1 0.4 130
22/11/2020 17:20 0.9 77 0.0 0 0.0 0.0 0.0 145
22/11/2020 17:30 0.2 79 0.0 0 0.0 0.2 0.8 89
22/11/2020 17:40 -0.2 81 0.0 0 0.0 0.6 2.0 75
22/11/2020 17:50 -0.5 82 0.0 0 0.0 0.7 2.4 59
22/11/2020 18:00 -1.1 83 0.0 0 0.0 0.7 2.5 75
22/11/2020 18:10 -1.5 85 0.0 0 0.0 0.7 2.4 79
22/11/2020 18:20 -1.9 85 0.0 0 0.0 0.6 2.3 71
22/11/2020 18:30 -2.3 87 0.0 0 0.0 0.9 3.2 70
22/11/2020 18:40 -2.4 88 0.0 0 0.0 0.8 2.9 77
22/11/2020 18:50 -2.7 89 0.0 0 0.0 0.8 2.8 80
22/11/2020 19:00 -2.7 89 0.0 0 0.0 0.7 2.4 76
22/11/2020 19:10 -2.7 89 0.0 0 0.0 0.7 2.7 62
22/11/2020 19:20 -3.1 89 0.0 0 0.0 0.6 2.3 82
22/11/2020 19:30 -3.0 90 0.0 0 0.0 1.2 4.5 69
22/11/2020 19:40 -3.1 90 0.0 0 0.0 0.8 2.9 82
22/11/2020 19:50 -3.4 90 0.0 0 0.0 0.5 1.9 74
22/11/2020 20:00 -3.5 90 0.0 0 0.0 0.8 2.7 69
22/11/2020 20:10 -3.5 90 0.0 0 0.0 0.5 1.7 74
22/11/2020 20:20 -3.4 90 0.0 0 0.0 1.2 4.2 71
22/11/2020 20:30 -3.4 90 0.0 0 0.0 0.8 2.8 74
22/11/2020 20:40 -3.7 90 0.0 0 0.0 0.8 2.7 81
22/11/2020 20:50 -3.8 90 0.0 0 0.0 0.6 2.1 83
22/11/2020 21:00 -4.0 90 0.0 0 0.0 0.8 3.0 69
22/11/2020 21:10 -3.9 91 0.0 0 0.0 0.7 2.4 83
22/11/2020 21:20 -3.9 91 0.0 0 0.0 0.7 2.5 80
22/11/2020 21:30 -4.0 91 0.0 0 0.0 1.1 3.9 73
22/11/2020 21:40 -3.7 90 0.0 0 0.0 0.4 1.4 61
22/11/2020 21:50 -4.0 90 0.0 0 0.0 0.5 1.8 79
22/11/2020 22:00 -4.2 91 0.0 0 0.0 0.8 3.0 73
22/11/2020 22:10 -4.1 91 0.0 0 0.0 1.0 3.7 79
22/11/2020 22:20 -4.4 90 0.0 0 0.0 0.8 2.8 79
22/11/2020 22:30 -4.6 91 0.0 0 0.0 0.9 3.2 74
22/11/2020 22:40 -4.7 91 0.0 0 0.0 1.0 3.6 71
22/11/2020 22:50 -4.8 91 0.0 0 0.0 0.9 3.2 80
22/11/2020 23:00 -4.8 91 0.0 0 0.0 0.8 3.0 71
22/11/2020 23:10 -5.0 91 0.0 0 0.0 0.6 2.1 83
22/11/2020 23:20 -4.9 92 0.0 0 0.0 0.7 2.5 79
22/11/2020 23:30 -5.2 91 0.0 0 0.0 0.9 3.2 74
22/11/2020 23:40 -5.2 92 0.0 0 0.0 0.9 3.2 72
22/11/2020 23:50 -4.8 92 0.0 0 0.0 1.1 4.0 75
Anterior Página 1 de 1 Siguiente

NOTA: Tipo de datos según el color:
   - Valores diarios o 10 minutos correctos
   - Valores diarios calculados a partir de un número de datos 10 minutos menor que 144 y mayor que 120, o de un número de datos semihorarios menor que 48 y mayor que 40 (caso de las estaciones de INTIA Y Ministerio)
   - Valores diez minutos estimados


Contacto        Enlaces        Aviso legal